Terminal Aerodrome Forecast
Issued by NWS

Home | Current Version | Previous Version | Text Only | Print | Product List | Glossary On
Versions: 1 2 3 4 5 6 7 8 9 10 11 12 13
198
FTUS45 KREV 270129 AAA
TAFMMH
TAF AMD
KMMH 270129Z 2701/2724 20010G20KT P6SM SCT060
     FM270500 22012G26KT P6SM VCSH BKN050 OVC080
     FM270900 22010G20KT 2SM -SN BKN015 OVC030
     FM271700 26012G22KT P6SM VCSH BKN030=

USA.gov is the U.S. government's official web portal to all federal, state and local government web resources and services.